sensor_id;sensor_type;location;lat;lon;timestamp;P1;durP1;ratioP1;P2;durP2;ratioP2
71413;SDS011;59226;53.212;5.728;2022-08-19T00:01:32;3.10;;;1.10;;
71413;SDS011;59226;53.212;5.728;2022-08-19T00:03:58;2.33;;;0.98;;
71413;SDS011;59226;53.212;5.728;2022-08-19T00:06:24;1.77;;;0.85;;
71413;SDS011;59226;53.212;5.728;2022-08-19T00:08:49;3.60;;;1.17;;
71413;SDS011;59226;53.212;5.728;2022-08-19T00:11:16;1.60;;;0.80;;
71413;SDS011;59226;53.212;5.728;2022-08-19T00:13:41;1.67;;;0.60;;
71413;SDS011;59226;53.212;5.728;2022-08-19T00:16:07;2.87;;;1.40;;
71413;SDS011;59226;53.212;5.728;2022-08-19T00:18:32;1.17;;;0.70;;
71413;SDS011;59226;53.212;5.728;2022-08-19T00:20:58;2.08;;;1.17;;
71413;SDS011;59226;53.212;5.728;2022-08-19T00:23:24;1.93;;;1.00;;
71413;SDS011;59226;53.212;5.728;2022-08-19T00:25:50;1.75;;;1.00;;
71413;SDS011;59226;53.212;5.728;2022-08-19T00:28:15;2.37;;;1.07;;
71413;SDS011;59226;53.212;5.728;2022-08-19T00:30:40;2.30;;;1.10;;
71413;SDS011;59226;53.212;5.728;2022-08-19T00:33:06;1.83;;;1.10;;
71413;SDS011;59226;53.212;5.728;2022-08-19T00:35:33;2.17;;;0.80;;
71413;SDS011;59226;53.212;5.728;2022-08-19T00:37:58;4.13;;;1.70;;
71413;SDS011;59226;53.212;5.728;2022-08-19T00:40:24;2.08;;;0.80;;
71413;SDS011;59226;53.212;5.728;2022-08-19T00:42:50;5.82;;;1.27;;
71413;SDS011;59226;53.212;5.728;2022-08-19T00:45:24;3.03;;;1.48;;
71413;SDS011;59226;53.212;5.728;2022-08-19T00:47:49;3.58;;;1.17;;
71413;SDS011;59226;53.212;5.728;2022-08-19T00:50:15;2.07;;;1.00;;
71413;SDS011;59226;53.212;5.728;2022-08-19T00:52:42;5.85;;;1.40;;
71413;SDS011;59226;53.212;5.728;2022-08-19T00:55:10;3.97;;;1.63;;
71413;SDS011;59226;53.212;5.728;2022-08-19T00:57:37;4.63;;;1.40;;
71413;SDS011;59226;53.212;5.728;2022-08-19T01:00:05;2.05;;;1.10;;
71413;SDS011;59226;53.212;5.728;2022-08-19T01:02:31;3.15;;;1.23;;
71413;SDS011;59226;53.212;5.728;2022-08-19T01:04:57;2.95;;;1.33;;
71413;SDS011;59226;53.212;5.728;2022-08-19T01:07:23;3.13;;;1.10;;
71413;SDS011;59226;53.212;5.728;2022-08-19T01:09:48;3.80;;;2.13;;
71413;SDS011;59226;53.212;5.728;2022-08-19T01:12:14;2.43;;;1.30;;
71413;SDS011;59226;53.212;5.728;2022-08-19T01:14:40;2.07;;;1.07;;
71413;SDS011;59226;53.212;5.728;2022-08-19T01:17:07;2.72;;;1.23;;
71413;SDS011;59226;53.212;5.728;2022-08-19T01:19:34;2.58;;;1.33;;
71413;SDS011;59226;53.212;5.728;2022-08-19T01:22:06;2.95;;;1.17;;
71413;SDS011;59226;53.212;5.728;2022-08-19T01:24:33;2.70;;;1.23;;
71413;SDS011;59226;53.212;5.728;2022-08-19T01:26:58;2.45;;;1.30;;
71413;SDS011;59226;53.212;5.728;2022-08-19T01:29:24;3.53;;;2.07;;
71413;SDS011;59226;53.212;5.728;2022-08-19T01:31:49;2.80;;;1.70;;
71413;SDS011;59226;53.212;5.728;2022-08-19T01:34:17;4.13;;;1.33;;
71413;SDS011;59226;53.212;5.728;2022-08-19T01:36:43;3.28;;;1.60;;
71413;SDS011;59226;53.212;5.728;2022-08-19T01:39:15;3.65;;;1.83;;
71413;SDS011;59226;53.212;5.728;2022-08-19T01:41:41;4.37;;;1.33;;
71413;SDS011;59226;53.212;5.728;2022-08-19T01:44:07;2.30;;;1.13;;
71413;SDS011;59226;53.212;5.728;2022-08-19T01:46:32;3.13;;;1.10;;
71413;SDS011;59226;53.212;5.728;2022-08-19T01:48:58;3.33;;;1.27;;
71413;SDS011;59226;53.212;5.728;2022-08-19T01:51:23;5.38;;;2.47;;
71413;SDS011;59226;53.212;5.728;2022-08-19T01:53:49;4.70;;;1.30;;
71413;SDS011;59226;53.212;5.728;2022-08-19T01:56:14;2.70;;;1.60;;
71413;SDS011;59226;53.212;5.728;2022-08-19T01:58:41;4.90;;;2.20;;
71413;SDS011;59226;53.212;5.728;2022-08-19T02:01:08;3.83;;;1.33;;
71413;SDS011;59226;53.212;5.728;2022-08-19T02:03:33;3.95;;;1.40;;
71413;SDS011;59226;53.212;5.728;2022-08-19T02:05:59;5.53;;;2.10;;
71413;SDS011;59226;53.212;5.728;2022-08-19T02:08:28;2.30;;;1.10;;
71413;SDS011;59226;53.212;5.728;2022-08-19T02:10:54;4.35;;;1.38;;
71413;SDS011;59226;53.212;5.728;2022-08-19T02:13:19;2.87;;;1.57;;
71413;SDS011;59226;53.212;5.728;2022-08-19T02:15:45;3.50;;;1.33;;
71413;SDS011;59226;53.212;5.728;2022-08-19T02:18:10;3.87;;;1.67;;
71413;SDS011;59226;53.212;5.728;2022-08-19T02:20:36;2.57;;;1.43;;
71413;SDS011;59226;53.212;5.728;2022-08-19T02:23:02;3.17;;;1.77;;
71413;SDS011;59226;53.212;5.728;2022-08-19T02:25:27;3.67;;;1.23;;
71413;SDS011;59226;53.212;5.728;2022-08-19T02:27:53;2.60;;;1.20;;
71413;SDS011;59226;53.212;5.728;2022-08-19T02:30:19;3.97;;;1.85;;
71413;SDS011;59226;53.212;5.728;2022-08-19T02:32:44;3.77;;;1.70;;
71413;SDS011;59226;53.212;5.728;2022-08-19T02:35:10;3.83;;;2.03;;
71413;SDS011;59226;53.212;5.728;2022-08-19T02:37:35;5.65;;;1.98;;
71413;SDS011;59226;53.212;5.728;2022-08-19T02:40:19;3.07;;;1.20;;
71413;SDS011;59226;53.212;5.728;2022-08-19T02:42:44;3.80;;;2.00;;
71413;SDS011;59226;53.212;5.728;2022-08-19T02:45:10;3.77;;;1.80;;
71413;SDS011;59226;53.212;5.728;2022-08-19T02:47:36;2.97;;;1.63;;
71413;SDS011;59226;53.212;5.728;2022-08-19T02:50:01;3.77;;;1.87;;
71413;SDS011;59226;53.212;5.728;2022-08-19T02:52:27;3.63;;;1.50;;
71413;SDS011;59226;53.212;5.728;2022-08-19T02:54:52;3.10;;;1.60;;
71413;SDS011;59226;53.212;5.728;2022-08-19T02:57:17;6.93;;;1.97;;
71413;SDS011;59226;53.212;5.728;2022-08-19T02:59:42;4.10;;;1.93;;
71413;SDS011;59226;53.212;5.728;2022-08-19T03:02:08;5.10;;;2.53;;
71413;SDS011;59226;53.212;5.728;2022-08-19T03:04:33;5.03;;;2.37;;
71413;SDS011;59226;53.212;5.728;2022-08-19T03:06:58;5.00;;;2.23;;
71413;SDS011;59226;53.212;5.728;2022-08-19T03:09:23;3.80;;;1.73;;
71413;SDS011;59226;53.212;5.728;2022-08-19T03:11:48;4.70;;;2.37;;
71413;SDS011;59226;53.212;5.728;2022-08-19T03:14:15;3.33;;;1.60;;
71413;SDS011;59226;53.212;5.728;2022-08-19T03:16:42;4.60;;;2.00;;
71413;SDS011;59226;53.212;5.728;2022-08-19T03:19:07;4.63;;;2.10;;
71413;SDS011;59226;53.212;5.728;2022-08-19T03:21:33;3.33;;;1.50;;
71413;SDS011;59226;53.212;5.728;2022-08-19T03:24:00;3.47;;;1.67;;
71413;SDS011;59226;53.212;5.728;2022-08-19T03:26:25;1.95;;;1.05;;
71413;SDS011;59226;53.212;5.728;2022-08-19T03:28:50;3.40;;;1.50;;
71413;SDS011;59226;53.212;5.728;2022-08-19T03:31:17;4.45;;;1.55;;
71413;SDS011;59226;53.212;5.728;2022-08-19T03:33:43;4.43;;;2.30;;
71413;SDS011;59226;53.212;5.728;2022-08-19T03:36:09;6.75;;;2.55;;
71413;SDS011;59226;53.212;5.728;2022-08-19T03:38:40;3.13;;;1.65;;
71413;SDS011;59226;53.212;5.728;2022-08-19T03:41:06;4.53;;;1.70;;
71413;SDS011;59226;53.212;5.728;2022-08-19T03:43:33;5.60;;;2.47;;
71413;SDS011;59226;53.212;5.728;2022-08-19T03:46:03;4.60;;;2.45;;
71413;SDS011;59226;53.212;5.728;2022-08-19T03:48:29;2.55;;;1.23;;
71413;SDS011;59226;53.212;5.728;2022-08-19T03:50:55;3.10;;;1.25;;
71413;SDS011;59226;53.212;5.728;2022-08-19T03:53:20;3.97;;;1.73;;
71413;SDS011;59226;53.212;5.728;2022-08-19T03:55:46;5.23;;;1.67;;
71413;SDS011;59226;53.212;5.728;2022-08-19T03:58:11;4.03;;;2.20;;
71413;SDS011;59226;53.212;5.728;2022-08-19T04:00:36;2.87;;;1.60;;
71413;SDS011;59226;53.212;5.728;2022-08-19T04:03:01;4.03;;;1.60;;
71413;SDS011;59226;53.212;5.728;2022-08-19T04:05:27;3.20;;;1.83;;
71413;SDS011;59226;53.212;5.728;2022-08-19T04:07:53;4.15;;;1.38;;
71413;SDS011;59226;53.212;5.728;2022-08-19T04:10:20;2.45;;;1.30;;
71413;SDS011;59226;53.212;5.728;2022-08-19T04:12:45;3.97;;;1.67;;
71413;SDS011;59226;53.212;5.728;2022-08-19T04:15:11;2.47;;;1.17;;
71413;SDS011;59226;53.212;5.728;2022-08-19T04:17:36;2.97;;;1.40;;
71413;SDS011;59226;53.212;5.728;2022-08-19T04:20:02;3.97;;;2.23;;
71413;SDS011;59226;53.212;5.728;2022-08-19T04:22:27;5.17;;;2.73;;
71413;SDS011;59226;53.212;5.728;2022-08-19T04:24:52;4.30;;;2.13;;
71413;SDS011;59226;53.212;5.728;2022-08-19T04:27:17;6.43;;;1.73;;
71413;SDS011;59226;53.212;5.728;2022-08-19T04:29:43;3.07;;;1.30;;
71413;SDS011;59226;53.212;5.728;2022-08-19T04:32:08;4.43;;;1.83;;
71413;SDS011;59226;53.212;5.728;2022-08-19T04:34:33;5.70;;;1.90;;
71413;SDS011;59226;53.212;5.728;2022-08-19T04:36:59;2.97;;;1.40;;
71413;SDS011;59226;53.212;5.728;2022-08-19T04:39:28;4.50;;;1.97;;
71413;SDS011;59226;53.212;5.728;2022-08-19T04:42:12;4.22;;;1.48;;
71413;SDS011;59226;53.212;5.728;2022-08-19T04:44:56;6.43;;;2.35;;
71413;SDS011;59226;53.212;5.728;2022-08-19T04:47:21;4.03;;;1.77;;
71413;SDS011;59226;53.212;5.728;2022-08-19T04:49:47;4.63;;;1.97;;
71413;SDS011;59226;53.212;5.728;2022-08-19T04:52:13;6.25;;;2.40;;
71413;SDS011;59226;53.212;5.728;2022-08-19T04:54:38;3.27;;;1.23;;
71413;SDS011;59226;53.212;5.728;2022-08-19T04:57:03;4.63;;;2.30;;
71413;SDS011;59226;53.212;5.728;2022-08-19T04:59:31;6.15;;;2.33;;
71413;SDS011;59226;53.212;5.728;2022-08-19T05:01:58;4.63;;;1.90;;
71413;SDS011;59226;53.212;5.728;2022-08-19T05:04:23;7.47;;;2.55;;
71413;SDS011;59226;53.212;5.728;2022-08-19T05:06:48;4.90;;;2.00;;
71413;SDS011;59226;53.212;5.728;2022-08-19T05:09:14;4.70;;;1.73;;
71413;SDS011;59226;53.212;5.728;2022-08-19T05:11:40;4.53;;;2.43;;
71413;SDS011;59226;53.212;5.728;2022-08-19T05:14:06;2.83;;;1.27;;
71413;SDS011;59226;53.212;5.728;2022-08-19T05:16:31;3.47;;;1.93;;
71413;SDS011;59226;53.212;5.728;2022-08-19T05:18:57;4.13;;;1.88;;
71413;SDS011;59226;53.212;5.728;2022-08-19T05:21:41;7.20;;;2.30;;
71413;SDS011;59226;53.212;5.728;2022-08-19T05:24:26;3.97;;;2.03;;
71413;SDS011;59226;53.212;5.728;2022-08-19T05:26:52;7.18;;;3.30;;
71413;SDS011;59226;53.212;5.728;2022-08-19T05:29:18;4.68;;;2.17;;
71413;SDS011;59226;53.212;5.728;2022-08-19T05:31:44;4.82;;;2.38;;
71413;SDS011;59226;53.212;5.728;2022-08-19T05:34:10;6.13;;;2.43;;
71413;SDS011;59226;53.212;5.728;2022-08-19T05:36:37;5.87;;;1.27;;
71413;SDS011;59226;53.212;5.728;2022-08-19T05:39:04;4.00;;;2.10;;
71413;SDS011;59226;53.212;5.728;2022-08-19T05:41:29;6.50;;;2.03;;
71413;SDS011;59226;53.212;5.728;2022-08-19T05:44:00;5.13;;;1.98;;
71413;SDS011;59226;53.212;5.728;2022-08-19T05:46:26;6.10;;;2.28;;
71413;SDS011;59226;53.212;5.728;2022-08-19T05:48:51;3.50;;;1.90;;
71413;SDS011;59226;53.212;5.728;2022-08-19T05:51:16;4.33;;;1.67;;
71413;SDS011;59226;53.212;5.728;2022-08-19T05:53:41;6.20;;;2.60;;
71413;SDS011;59226;53.212;5.728;2022-08-19T05:56:08;5.37;;;2.10;;
71413;SDS011;59226;53.212;5.728;2022-08-19T05:58:34;5.35;;;3.20;;
71413;SDS011;59226;53.212;5.728;2022-08-19T06:00:59;8.43;;;2.42;;
71413;SDS011;59226;53.212;5.728;2022-08-19T06:03:29;7.57;;;2.30;;
71413;SDS011;59226;53.212;5.728;2022-08-19T06:05:55;4.67;;;2.33;;
71413;SDS011;59226;53.212;5.728;2022-08-19T06:08:20;4.73;;;2.23;;
71413;SDS011;59226;53.212;5.728;2022-08-19T06:10:45;4.40;;;2.37;;
71413;SDS011;59226;53.212;5.728;2022-08-19T06:13:10;6.27;;;2.63;;
71413;SDS011;59226;53.212;5.728;2022-08-19T06:15:35;5.07;;;1.87;;
71413;SDS011;59226;53.212;5.728;2022-08-19T06:18:01;4.80;;;2.70;;
71413;SDS011;59226;53.212;5.728;2022-08-19T06:20:26;4.67;;;1.50;;
71413;SDS011;59226;53.212;5.728;2022-08-19T06:22:51;6.33;;;2.83;;
71413;SDS011;59226;53.212;5.728;2022-08-19T06:25:17;5.03;;;2.23;;
71413;SDS011;59226;53.212;5.728;2022-08-19T06:27:42;7.00;;;3.03;;
71413;SDS011;59226;53.212;5.728;2022-08-19T06:30:08;5.43;;;1.77;;
71413;SDS011;59226;53.212;5.728;2022-08-19T06:32:33;4.43;;;2.07;;
71413;SDS011;59226;53.212;5.728;2022-08-19T06:34:58;5.67;;;2.37;;
71413;SDS011;59226;53.212;5.728;2022-08-19T06:37:24;4.67;;;2.33;;
71413;SDS011;59226;53.212;5.728;2022-08-19T06:39:49;5.97;;;3.53;;
71413;SDS011;59226;53.212;5.728;2022-08-19T06:42:15;9.05;;;3.00;;
71413;SDS011;59226;53.212;5.728;2022-08-19T06:44:44;3.70;;;1.92;;
71413;SDS011;59226;53.212;5.728;2022-08-19T06:47:10;8.00;;;3.27;;
71413;SDS011;59226;53.212;5.728;2022-08-19T06:49:35;7.97;;;3.53;;
71413;SDS011;59226;53.212;5.728;2022-08-19T06:52:01;5.45;;;2.85;;
71413;SDS011;59226;53.212;5.728;2022-08-19T06:54:27;5.00;;;2.20;;
71413;SDS011;59226;53.212;5.728;2022-08-19T06:56:54;6.45;;;3.08;;
71413;SDS011;59226;53.212;5.728;2022-08-19T06:59:20;5.80;;;2.03;;
71413;SDS011;59226;53.212;5.728;2022-08-19T07:01:47;8.93;;;1.98;;
71413;SDS011;59226;53.212;5.728;2022-08-19T07:04:14;6.10;;;3.88;;
71413;SDS011;59226;53.212;5.728;2022-08-19T07:06:40;6.73;;;2.30;;
71413;SDS011;59226;53.212;5.728;2022-08-19T07:09:06;6.75;;;3.58;;
71413;SDS011;59226;53.212;5.728;2022-08-19T07:11:32;6.17;;;3.10;;
71413;SDS011;59226;53.212;5.728;2022-08-19T07:13:57;5.88;;;3.03;;
71413;SDS011;59226;53.212;5.728;2022-08-19T07:16:22;7.13;;;3.10;;
71413;SDS011;59226;53.212;5.728;2022-08-19T07:18:48;5.37;;;2.07;;
71413;SDS011;59226;53.212;5.728;2022-08-19T07:21:16;8.98;;;3.60;;
71413;SDS011;59226;53.212;5.728;2022-08-19T07:23:42;10.85;;;4.10;;
71413;SDS011;59226;53.212;5.728;2022-08-19T07:26:15;9.27;;;4.77;;
71413;SDS011;59226;53.212;5.728;2022-08-19T07:28:41;6.70;;;3.13;;
71413;SDS011;59226;53.212;5.728;2022-08-19T07:31:09;7.85;;;3.88;;
71413;SDS011;59226;53.212;5.728;2022-08-19T07:33:35;9.23;;;4.85;;
71413;SDS011;59226;53.212;5.728;2022-08-19T07:36:02;7.00;;;3.08;;
71413;SDS011;59226;53.212;5.728;2022-08-19T07:38:28;6.50;;;2.80;;
71413;SDS011;59226;53.212;5.728;2022-08-19T07:40:53;11.33;;;4.53;;
71413;SDS011;59226;53.212;5.728;2022-08-19T07:43:19;7.20;;;3.33;;
71413;SDS011;59226;53.212;5.728;2022-08-19T07:45:45;10.98;;;4.68;;
71413;SDS011;59226;53.212;5.728;2022-08-19T07:48:12;9.10;;;4.85;;
71413;SDS011;59226;53.212;5.728;2022-08-19T07:50:37;9.87;;;4.53;;
71413;SDS011;59226;53.212;5.728;2022-08-19T07:53:02;9.00;;;4.90;;
71413;SDS011;59226;53.212;5.728;2022-08-19T07:55:28;12.10;;;5.43;;
71413;SDS011;59226;53.212;5.728;2022-08-19T07:57:53;6.70;;;3.50;;
71413;SDS011;59226;53.212;5.728;2022-08-19T08:00:18;16.20;;;4.97;;
71413;SDS011;59226;53.212;5.728;2022-08-19T08:02:44;9.90;;;5.20;;
71413;SDS011;59226;53.212;5.728;2022-08-19T08:05:09;10.87;;;5.50;;
71413;SDS011;59226;53.212;5.728;2022-08-19T08:07:53;10.00;;;5.57;;
71413;SDS011;59226;53.212;5.728;2022-08-19T08:10:37;14.90;;;7.27;;
71413;SDS011;59226;53.212;5.728;2022-08-19T08:13:03;13.60;;;5.88;;
71413;SDS011;59226;53.212;5.728;2022-08-19T08:15:29;10.47;;;4.77;;
71413;SDS011;59226;53.212;5.728;2022-08-19T08:17:55;14.83;;;6.60;;
71413;SDS011;59226;53.212;5.728;2022-08-19T08:20:21;9.02;;;4.55;;
71413;SDS011;59226;53.212;5.728;2022-08-19T08:22:47;9.90;;;4.70;;
71413;SDS011;59226;53.212;5.728;2022-08-19T08:25:30;11.65;;;5.03;;
71413;SDS011;59226;53.212;5.728;2022-08-19T08:27:56;7.83;;;3.87;;
71413;SDS011;59226;53.212;5.728;2022-08-19T08:30:24;10.50;;;4.95;;
71413;SDS011;59226;53.212;5.728;2022-08-19T08:32:50;20.48;;;5.22;;
71413;SDS011;59226;53.212;5.728;2022-08-19T08:35:17;11.80;;;4.78;;
71413;SDS011;59226;53.212;5.728;2022-08-19T08:37:43;10.33;;;4.57;;
71413;SDS011;59226;53.212;5.728;2022-08-19T08:40:20;9.00;;;4.88;;
71413;SDS011;59226;53.212;5.728;2022-08-19T08:42:55;9.98;;;4.68;;
71413;SDS011;59226;53.212;5.728;2022-08-19T08:45:25;8.18;;;4.22;;
71413;SDS011;59226;53.212;5.728;2022-08-19T08:47:51;13.63;;;5.50;;
71413;SDS011;59226;53.212;5.728;2022-08-19T08:50:23;9.10;;;4.13;;
71413;SDS011;59226;53.212;5.728;2022-08-19T08:52:50;8.98;;;4.22;;
71413;SDS011;59226;53.212;5.728;2022-08-19T08:55:17;6.20;;;3.47;;
71413;SDS011;59226;53.212;5.728;2022-08-19T09:00:19;6.78;;;4.10;;
71413;SDS011;59226;53.212;5.728;2022-08-19T09:02:45;7.20;;;3.70;;
71413;SDS011;59226;53.212;5.728;2022-08-19T09:05:11;8.32;;;3.17;;
71413;SDS011;59226;53.212;5.728;2022-08-19T09:10:49;9.57;;;3.93;;
71413;SDS011;59226;53.212;5.728;2022-08-19T09:15:17;8.45;;;4.32;;
71413;SDS011;59226;53.212;5.728;2022-08-19T09:17:45;5.90;;;3.97;;
71413;SDS011;59226;53.212;5.728;2022-08-19T09:22:39;6.90;;;3.77;;
71413;SDS011;59226;53.212;5.728;2022-08-19T09:25:05;8.60;;;3.42;;
71413;SDS011;59226;53.212;5.728;2022-08-19T09:27:31;7.87;;;4.03;;
71413;SDS011;59226;53.212;5.728;2022-08-19T09:29:57;8.02;;;3.30;;
71413;SDS011;59226;53.212;5.728;2022-08-19T09:32:22;8.53;;;3.20;;
71413;SDS011;59226;53.212;5.728;2022-08-19T09:34:48;5.95;;;3.45;;
71413;SDS011;59226;53.212;5.728;2022-08-19T09:37:14;7.07;;;3.07;;
71413;SDS011;59226;53.212;5.728;2022-08-19T09:39:39;10.90;;;4.72;;
71413;SDS011;59226;53.212;5.728;2022-08-19T09:42:06;6.90;;;3.40;;
71413;SDS011;59226;53.212;5.728;2022-08-19T09:44:36;7.97;;;3.40;;
71413;SDS011;59226;53.212;5.728;2022-08-19T09:47:01;7.13;;;2.90;;
71413;SDS011;59226;53.212;5.728;2022-08-19T09:49:28;6.40;;;3.17;;
71413;SDS011;59226;53.212;5.728;2022-08-19T09:51:53;7.77;;;3.97;;
71413;SDS011;59226;53.212;5.728;2022-08-19T09:54:21;7.63;;;3.63;;
71413;SDS011;59226;53.212;5.728;2022-08-19T09:56:46;8.27;;;3.13;;
71413;SDS011;59226;53.212;5.728;2022-08-19T09:59:11;7.50;;;3.07;;
71413;SDS011;59226;53.212;5.728;2022-08-19T10:01:37;5.85;;;2.78;;
71413;SDS011;59226;53.212;5.728;2022-08-19T10:04:02;3.33;;;1.67;;
71413;SDS011;59226;53.212;5.728;2022-08-19T10:06:33;5.53;;;2.03;;
71413;SDS011;59226;53.212;5.728;2022-08-19T10:08:58;8.40;;;2.60;;
71413;SDS011;59226;53.212;5.728;2022-08-19T10:11:24;6.80;;;2.20;;
71413;SDS011;59226;53.212;5.728;2022-08-19T10:13:49;5.73;;;2.70;;
71413;SDS011;59226;53.212;5.728;2022-08-19T10:16:15;6.73;;;2.97;;
71413;SDS011;59226;53.212;5.728;2022-08-19T10:18:41;6.85;;;2.30;;
71413;SDS011;59226;53.212;5.728;2022-08-19T10:21:11;5.43;;;2.72;;
71413;SDS011;59226;53.212;5.728;2022-08-19T10:23:37;6.53;;;3.10;;
71413;SDS011;59226;53.212;5.728;2022-08-19T10:26:04;12.93;;;2.50;;
71413;SDS011;59226;53.212;5.728;2022-08-19T10:28:30;5.53;;;2.67;;
71413;SDS011;59226;53.212;5.728;2022-08-19T10:30:56;11.30;;;2.97;;
71413;SDS011;59226;53.212;5.728;2022-08-19T10:33:21;8.33;;;2.57;;
71413;SDS011;59226;53.212;5.728;2022-08-19T10:35:46;5.23;;;1.80;;
71413;SDS011;59226;53.212;5.728;2022-08-19T10:38:12;5.67;;;2.73;;
71413;SDS011;59226;53.212;5.728;2022-08-19T10:40:37;3.30;;;1.73;;
71413;SDS011;59226;53.212;5.728;2022-08-19T10:43:02;5.30;;;2.23;;
71413;SDS011;59226;53.212;5.728;2022-08-19T10:45:27;7.50;;;1.57;;
71413;SDS011;59226;53.212;5.728;2022-08-19T10:47:52;5.83;;;2.43;;
71413;SDS011;59226;53.212;5.728;2022-08-19T10:50:18;5.78;;;2.25;;
71413;SDS011;59226;53.212;5.728;2022-08-19T10:53:05;7.50;;;2.70;;
71413;SDS011;59226;53.212;5.728;2022-08-19T10:55:31;7.00;;;2.58;;
71413;SDS011;59226;53.212;5.728;2022-08-19T10:58:16;4.93;;;2.22;;
71413;SDS011;59226;53.212;5.728;2022-08-19T11:00:41;8.02;;;3.25;;
71413;SDS011;59226;53.212;5.728;2022-08-19T11:03:08;5.80;;;2.38;;
71413;SDS011;59226;53.212;5.728;2022-08-19T11:05:33;5.90;;;2.40;;
71413;SDS011;59226;53.212;5.728;2022-08-19T11:07:58;4.07;;;1.90;;
71413;SDS011;59226;53.212;5.728;2022-08-19T11:10:24;5.77;;;3.10;;
71413;SDS011;59226;53.212;5.728;2022-08-19T11:12:49;4.53;;;1.90;;
71413;SDS011;59226;53.212;5.728;2022-08-19T11:15:17;5.82;;;1.65;;
71413;SDS011;59226;53.212;5.728;2022-08-19T11:17:43;4.53;;;1.70;;
71413;SDS011;59226;53.212;5.728;2022-08-19T11:20:09;4.37;;;2.23;;
71413;SDS011;59226;53.212;5.728;2022-08-19T11:22:34;5.72;;;1.90;;
71413;SDS011;59226;53.212;5.728;2022-08-19T11:25:00;5.77;;;2.80;;
71413;SDS011;59226;53.212;5.728;2022-08-19T11:27:25;5.53;;;2.63;;
71413;SDS011;59226;53.212;5.728;2022-08-19T11:29:50;5.63;;;1.90;;
71413;SDS011;59226;53.212;5.728;2022-08-19T11:32:17;7.40;;;2.60;;
71413;SDS011;59226;53.212;5.728;2022-08-19T11:34:42;4.87;;;2.27;;
71413;SDS011;59226;53.212;5.728;2022-08-19T11:37:07;6.23;;;2.50;;
71413;SDS011;59226;53.212;5.728;2022-08-19T11:39:34;9.68;;;4.03;;
71413;SDS011;59226;53.212;5.728;2022-08-19T11:42:01;5.67;;;2.40;;
71413;SDS011;59226;53.212;5.728;2022-08-19T11:44:28;7.30;;;2.42;;
71413;SDS011;59226;53.212;5.728;2022-08-19T11:46:55;6.82;;;2.63;;
71413;SDS011;59226;53.212;5.728;2022-08-19T11:49:21;8.25;;;3.00;;
71413;SDS011;59226;53.212;5.728;2022-08-19T11:51:46;8.13;;;3.33;;
71413;SDS011;59226;53.212;5.728;2022-08-19T11:54:12;7.03;;;2.27;;
71413;SDS011;59226;53.212;5.728;2022-08-19T11:56:38;3.55;;;1.70;;
71413;SDS011;59226;53.212;5.728;2022-08-19T11:59:04;3.03;;;1.20;;
71413;SDS011;59226;53.212;5.728;2022-08-19T12:01:29;7.87;;;2.10;;
71413;SDS011;59226;53.212;5.728;2022-08-19T12:03:55;8.33;;;1.10;;
71413;SDS011;59226;53.212;5.728;2022-08-19T12:06:21;3.22;;;1.65;;
71413;SDS011;59226;53.212;5.728;2022-08-19T12:08:50;3.47;;;1.63;;
71413;SDS011;59226;53.212;5.728;2022-08-19T12:11:16;4.40;;;2.07;;
71413;SDS011;59226;53.212;5.728;2022-08-19T12:13:41;6.73;;;2.03;;
71413;SDS011;59226;53.212;5.728;2022-08-19T12:16:14;4.90;;;2.47;;
71413;SDS011;59226;53.212;5.728;2022-08-19T12:18:40;4.30;;;1.65;;
71413;SDS011;59226;53.212;5.728;2022-08-19T12:21:11;5.88;;;2.03;;
71413;SDS011;59226;53.212;5.728;2022-08-19T12:23:38;4.53;;;2.03;;
71413;SDS011;59226;53.212;5.728;2022-08-19T12:26:03;6.70;;;2.30;;
71413;SDS011;59226;53.212;5.728;2022-08-19T12:28:29;3.57;;;1.73;;
71413;SDS011;59226;53.212;5.728;2022-08-19T12:30:55;4.28;;;2.25;;
71413;SDS011;59226;53.212;5.728;2022-08-19T12:33:20;5.33;;;2.33;;
71413;SDS011;59226;53.212;5.728;2022-08-19T12:35:49;6.90;;;2.50;;
71413;SDS011;59226;53.212;5.728;2022-08-19T12:38:15;7.90;;;3.47;;
71413;SDS011;59226;53.212;5.728;2022-08-19T12:40:40;5.53;;;2.47;;
71413;SDS011;59226;53.212;5.728;2022-08-19T12:43:06;7.50;;;2.40;;
71413;SDS011;59226;53.212;5.728;2022-08-19T12:45:32;5.40;;;2.85;;
71413;SDS011;59226;53.212;5.728;2022-08-19T12:47:57;4.20;;;2.23;;
71413;SDS011;59226;53.212;5.728;2022-08-19T12:50:23;5.33;;;2.93;;
71413;SDS011;59226;53.212;5.728;2022-08-19T12:52:48;7.30;;;3.72;;
71413;SDS011;59226;53.212;5.728;2022-08-19T12:55:13;5.07;;;2.10;;
71413;SDS011;59226;53.212;5.728;2022-08-19T12:57:39;4.97;;;2.57;;
71413;SDS011;59226;53.212;5.728;2022-08-19T13:00:08;6.57;;;3.37;;
71413;SDS011;59226;53.212;5.728;2022-08-19T13:02:38;6.80;;;1.83;;
71413;SDS011;59226;53.212;5.728;2022-08-19T13:05:04;4.53;;;1.77;;
71413;SDS011;59226;53.212;5.728;2022-08-19T13:07:31;4.75;;;2.25;;
71413;SDS011;59226;53.212;5.728;2022-08-19T13:09:56;10.10;;;3.30;;
71413;SDS011;59226;53.212;5.728;2022-08-19T13:12:22;5.60;;;2.23;;
71413;SDS011;59226;53.212;5.728;2022-08-19T13:14:49;3.30;;;1.60;;
71413;SDS011;59226;53.212;5.728;2022-08-19T13:17:15;5.30;;;2.00;;
71413;SDS011;59226;53.212;5.728;2022-08-19T13:19:41;6.63;;;2.58;;
71413;SDS011;59226;53.212;5.728;2022-08-19T13:22:06;6.47;;;2.57;;
71413;SDS011;59226;53.212;5.728;2022-08-19T13:24:31;7.67;;;3.27;;
71413;SDS011;59226;53.212;5.728;2022-08-19T13:26:58;6.32;;;3.22;;
71413;SDS011;59226;53.212;5.728;2022-08-19T13:29:23;4.83;;;2.30;;
71413;SDS011;59226;53.212;5.728;2022-08-19T13:32:07;7.50;;;2.65;;
71413;SDS011;59226;53.212;5.728;2022-08-19T13:34:51;19.38;;;3.25;;
71413;SDS011;59226;53.212;5.728;2022-08-19T13:37:17;4.90;;;2.23;;
71413;SDS011;59226;53.212;5.728;2022-08-19T13:40:02;7.90;;;3.22;;
71413;SDS011;59226;53.212;5.728;2022-08-19T13:42:28;5.47;;;1.90;;
71413;SDS011;59226;53.212;5.728;2022-08-19T13:44:57;4.93;;;2.53;;
71413;SDS011;59226;53.212;5.728;2022-08-19T13:47:23;6.72;;;2.75;;
71413;SDS011;59226;53.212;5.728;2022-08-19T13:49:48;3.33;;;1.80;;
71413;SDS011;59226;53.212;5.728;2022-08-19T13:52:15;7.38;;;2.03;;
71413;SDS011;59226;53.212;5.728;2022-08-19T13:54:40;4.53;;;1.60;;
71413;SDS011;59226;53.212;5.728;2022-08-19T13:57:05;4.40;;;1.47;;
71413;SDS011;59226;53.212;5.728;2022-08-19T13:59:31;3.53;;;1.20;;
71413;SDS011;59226;53.212;5.728;2022-08-19T14:01:58;3.67;;;1.73;;
71413;SDS011;59226;53.212;5.728;2022-08-19T14:04:23;3.05;;;1.83;;
71413;SDS011;59226;53.212;5.728;2022-08-19T14:06:48;4.67;;;2.03;;
71413;SDS011;59226;53.212;5.728;2022-08-19T14:09:14;7.97;;;2.07;;
71413;SDS011;59226;53.212;5.728;2022-08-19T14:11:39;4.57;;;1.90;;
71413;SDS011;59226;53.212;5.728;2022-08-19T14:14:04;6.00;;;1.63;;
71413;SDS011;59226;53.212;5.728;2022-08-19T14:16:29;3.47;;;1.37;;
71413;SDS011;59226;53.212;5.728;2022-08-19T14:18:55;4.30;;;1.40;;
71413;SDS011;59226;53.212;5.728;2022-08-19T14:21:21;3.47;;;1.23;;
71413;SDS011;59226;53.212;5.728;2022-08-19T14:23:47;3.85;;;1.83;;
71413;SDS011;59226;53.212;5.728;2022-08-19T14:26:13;4.37;;;1.77;;
71413;SDS011;59226;53.212;5.728;2022-08-19T14:28:39;3.22;;;1.73;;
71413;SDS011;59226;53.212;5.728;2022-08-19T14:31:06;3.67;;;1.23;;
71413;SDS011;59226;53.212;5.728;2022-08-19T14:33:31;4.47;;;1.13;;
71413;SDS011;59226;53.212;5.728;2022-08-19T14:35:57;3.10;;;1.40;;
71413;SDS011;59226;53.212;5.728;2022-08-19T14:38:22;4.20;;;1.40;;
71413;SDS011;59226;53.212;5.728;2022-08-19T14:40:48;2.42;;;1.23;;
71413;SDS011;59226;53.212;5.728;2022-08-19T14:43:14;4.80;;;1.67;;
71413;SDS011;59226;53.212;5.728;2022-08-19T14:45:39;5.63;;;1.30;;
71413;SDS011;59226;53.212;5.728;2022-08-19T14:48:05;2.50;;;1.00;;
71413;SDS011;59226;53.212;5.728;2022-08-19T14:50:31;3.25;;;1.75;;
71413;SDS011;59226;53.212;5.728;2022-08-19T14:53:00;8.50;;;2.07;;
71413;SDS011;59226;53.212;5.728;2022-08-19T14:55:27;5.00;;;2.25;;